createdAt,value
2023-08-11T00:01:31.500Z,17.8
2023-08-11T00:04:31.516Z,17.8
2023-08-11T00:07:31.522Z,17.8
2023-08-11T00:10:31.555Z,17.8
2023-08-11T00:13:31.552Z,17.8
2023-08-11T00:16:31.539Z,17.8
2023-08-11T00:19:31.569Z,17.8
2023-08-11T00:22:31.580Z,17.8
2023-08-11T00:25:31.583Z,17.8
2023-08-11T00:28:31.611Z,17.8
2023-08-11T00:31:31.652Z,17.8
2023-08-11T00:34:31.610Z,17.8
2023-08-11T00:37:31.617Z,17.8
2023-08-11T00:40:31.633Z,17.8
2023-08-11T00:43:31.661Z,17.8
2023-08-11T00:46:31.658Z,17.8
2023-08-11T00:49:31.667Z,17.8
2023-08-11T00:52:31.684Z,17.8
2023-08-11T00:55:32.739Z,17.8
2023-08-11T00:58:31.711Z,17.8
2023-08-11T01:01:31.783Z,17.8
2023-08-11T01:04:31.709Z,17.8
2023-08-11T01:07:31.711Z,17.8
2023-08-11T01:10:31.724Z,17.8
2023-08-11T01:13:31.744Z,17.8
2023-08-11T01:16:31.762Z,17.8
2023-08-11T01:19:31.738Z,17.8
2023-08-11T01:22:31.753Z,17.8
2023-08-11T01:25:31.772Z,17.8
2023-08-11T01:28:31.773Z,17.8
2023-08-11T01:31:31.765Z,17.8
2023-08-11T01:34:31.767Z,17.8
2023-08-11T01:37:31.774Z,17.8
2023-08-11T01:40:31.779Z,17.7
2023-08-11T01:43:31.803Z,17.7
2023-08-11T01:46:31.817Z,17.8
2023-08-11T01:49:31.809Z,17.7
2023-08-11T01:52:31.801Z,17.7
2023-08-11T01:55:31.797Z,17.7
2023-08-11T01:58:31.819Z,17.7
2023-08-11T02:01:31.846Z,17.7
2023-08-11T02:04:31.818Z,17.7
2023-08-11T02:07:31.826Z,17.7
2023-08-11T02:10:31.830Z,17.7
2023-08-11T02:13:31.856Z,17.7
2023-08-11T02:16:31.860Z,17.7
2023-08-11T02:19:31.847Z,17.7
2023-08-11T02:22:31.839Z,17.7
2023-08-11T02:25:31.846Z,17.7
2023-08-11T02:28:31.872Z,17.7
2023-08-11T02:31:31.895Z,17.7
2023-08-11T02:34:31.868Z,17.6
2023-08-11T02:37:31.866Z,17.7
2023-08-11T02:40:31.866Z,17.7
2023-08-11T02:43:32.076Z,17.6
2023-08-11T02:46:31.875Z,17.7
2023-08-11T02:49:31.877Z,17.6
2023-08-11T02:52:31.885Z,17.6
2023-08-11T02:55:31.884Z,17.6
2023-08-11T02:58:31.884Z,17.6
2023-08-11T03:01:31.919Z,17.6
2023-08-11T03:04:31.907Z,17.6
2023-08-11T03:07:31.909Z,17.6
2023-08-11T03:10:39.829Z,17.6
2023-08-11T03:13:31.918Z,17.6
2023-08-11T03:16:31.915Z,17.6
2023-08-11T03:19:31.922Z,17.6
2023-08-11T03:22:31.922Z,17.6
2023-08-11T03:25:31.937Z,17.6
2023-08-11T03:28:31.939Z,17.6
2023-08-11T03:31:31.953Z,17.6
2023-08-11T03:34:31.965Z,17.6
2023-08-11T03:37:31.953Z,17.6
2023-08-11T03:40:31.954Z,17.6
2023-08-11T03:43:31.957Z,17.6
2023-08-11T03:46:32.009Z,17.6
2023-08-11T03:49:31.974Z,17.6
2023-08-11T03:52:31.976Z,17.6
2023-08-11T03:55:31.986Z,17.6
2023-08-11T03:58:31.983Z,17.6
2023-08-11T04:01:32.007Z,17.6
2023-08-11T04:04:32.002Z,17.6
2023-08-11T04:07:32.016Z,17.6
2023-08-11T04:10:32.014Z,17.6
2023-08-11T04:13:32.017Z,17.6
2023-08-11T04:16:32.040Z,17.6
2023-08-11T04:19:32.026Z,17.6
2023-08-11T04:22:38.366Z,17.6
2023-08-11T04:25:32.031Z,17.6
2023-08-11T04:28:32.028Z,17.6
2023-08-11T04:31:32.072Z,17.6
2023-08-11T04:34:32.033Z,17.6
2023-08-11T04:37:32.056Z,17.6
2023-08-11T04:40:32.044Z,17.6
2023-08-11T04:43:32.050Z,17.6
2023-08-11T04:46:32.051Z,17.6
2023-08-11T04:49:32.058Z,17.6
2023-08-11T04:52:32.065Z,17.6
2023-08-11T04:55:32.062Z,17.6
2023-08-11T04:58:32.077Z,17.6
2023-08-11T05:01:32.101Z,17.6
2023-08-11T05:04:32.084Z,17.6
2023-08-11T05:07:32.089Z,17.6
2023-08-11T05:10:32.089Z,17.6
2023-08-11T05:13:32.097Z,17.5
2023-08-11T05:16:32.104Z,17.6
2023-08-11T05:19:32.105Z,17.5
2023-08-11T05:22:32.108Z,17.6
2023-08-11T05:25:32.119Z,17.6
2023-08-11T05:28:32.114Z,17.5
2023-08-11T05:31:32.173Z,17.5
2023-08-11T05:34:32.134Z,17.5
2023-08-11T05:37:32.133Z,17.5
2023-08-11T05:40:32.136Z,17.5
2023-08-11T05:43:32.140Z,17.5
2023-08-11T05:46:32.157Z,17.5
2023-08-11T05:49:32.161Z,17.5
2023-08-11T05:52:32.170Z,17.5
2023-08-11T05:55:32.188Z,17.5
2023-08-11T05:58:32.159Z,17.5
2023-08-11T06:01:32.215Z,17.5
2023-08-11T06:04:32.173Z,17.5
2023-08-11T06:07:32.183Z,17.5
2023-08-11T06:10:32.182Z,17.5
2023-08-11T06:13:32.186Z,17.5
2023-08-11T06:16:32.184Z,17.5
2023-08-11T06:19:32.188Z,17.5
2023-08-11T06:22:32.200Z,17.5
2023-08-11T06:25:32.201Z,17.5
2023-08-11T06:28:32.205Z,17.5
2023-08-11T06:31:32.205Z,17.5
2023-08-11T06:34:32.213Z,17.5
2023-08-11T06:37:32.294Z,17.5
2023-08-11T06:40:32.226Z,17.5
2023-08-11T06:43:32.211Z,17.5
2023-08-11T06:46:32.212Z,17.5
2023-08-11T06:49:32.213Z,17.5
2023-08-11T06:52:32.254Z,17.5
2023-08-11T06:55:32.244Z,17.5
2023-08-11T06:58:32.248Z,17.5
2023-08-11T07:01:32.279Z,17.5
2023-08-11T07:04:32.252Z,17.5
2023-08-11T07:07:32.264Z,17.5
2023-08-11T07:10:32.257Z,17.5
2023-08-11T07:13:32.263Z,17.5
2023-08-11T07:16:32.270Z,17.5
2023-08-11T07:19:32.264Z,17.5
2023-08-11T07:22:32.277Z,17.5
2023-08-11T07:25:32.277Z,17.4
2023-08-11T07:28:32.283Z,17.5
2023-08-11T07:31:32.283Z,17.5
2023-08-11T07:34:32.280Z,17.5
2023-08-11T07:37:32.290Z,17.5
2023-08-11T07:40:32.292Z,17.4
2023-08-11T07:43:32.296Z,17.5
2023-08-11T07:46:32.324Z,17.4
2023-08-11T07:49:32.313Z,17.4
2023-08-11T07:52:32.312Z,17.5
2023-08-11T07:55:32.307Z,17.4
2023-08-11T07:58:32.306Z,17.4
2023-08-11T08:01:32.346Z,17.4
2023-08-11T08:04:32.317Z,17.4
2023-08-11T08:07:32.311Z,17.4
2023-08-11T08:10:32.314Z,17.4
2023-08-11T08:13:32.315Z,17.4
2023-08-11T08:16:32.336Z,17.4
2023-08-11T08:19:32.326Z,17.4
2023-08-11T08:22:32.326Z,17.4
2023-08-11T08:25:32.336Z,17.4
2023-08-11T08:28:34.153Z,17.4
2023-08-11T08:31:32.341Z,17.4
2023-08-11T08:34:32.342Z,17.4
2023-08-11T08:37:32.339Z,17.4
2023-08-11T08:40:32.361Z,17.4
2023-08-11T08:43:32.369Z,17.4
2023-08-11T08:46:32.425Z,17.4
2023-08-11T08:49:32.384Z,17.4
2023-08-11T08:52:32.406Z,17.4
2023-08-11T08:55:32.411Z,17.4
2023-08-11T08:58:32.419Z,17.4
2023-08-11T09:01:32.447Z,17.5
2023-08-11T09:04:32.464Z,17.4
2023-08-11T09:07:32.432Z,17.4
2023-08-11T09:10:32.445Z,17.4
2023-08-11T09:13:32.453Z,17.5
2023-08-11T09:16:32.493Z,17.4
2023-08-11T09:19:32.472Z,17.4
2023-08-11T09:22:32.478Z,17.5
2023-08-11T09:25:32.491Z,17.4
2023-08-11T09:28:32.481Z,17.4
2023-08-11T09:31:32.510Z,17.4
2023-08-11T09:34:32.496Z,17.5
2023-08-11T09:37:32.499Z,17.5
2023-08-11T09:40:32.501Z,17.5
2023-08-11T09:43:32.774Z,17.4
2023-08-11T09:46:33.179Z,17.5
2023-08-11T09:49:32.507Z,17.5
2023-08-11T09:52:32.512Z,17.4
2023-08-11T09:55:32.512Z,17.5
2023-08-11T09:58:32.520Z,17.5
2023-08-11T10:01:32.546Z,17.5
2023-08-11T10:04:32.533Z,17.5
2023-08-11T10:07:32.539Z,17.5
2023-08-11T10:10:32.541Z,17.5
2023-08-11T10:13:32.541Z,17.5
2023-08-11T10:16:32.550Z,17.5
2023-08-11T10:19:32.547Z,17.5
2023-08-11T10:22:32.552Z,17.5
2023-08-11T10:25:32.555Z,17.5
2023-08-11T10:28:32.560Z,17.5
2023-08-11T10:31:32.662Z,17.5
2023-08-11T10:34:32.565Z,17.5
2023-08-11T10:37:32.594Z,17.5
2023-08-11T10:40:32.583Z,17.5
2023-08-11T10:43:32.593Z,17.5
2023-08-11T10:46:32.657Z,17.5
2023-08-11T10:49:32.615Z,17.5
2023-08-11T10:52:32.614Z,17.5
2023-08-11T10:55:32.606Z,17.5
2023-08-11T10:58:32.612Z,17.5
2023-08-11T11:01:32.632Z,17.5
2023-08-11T11:04:32.761Z,17.5
2023-08-11T11:07:32.632Z,17.5
2023-08-11T11:10:43.696Z,17.5
2023-08-11T11:13:32.639Z,17.6
2023-08-11T11:16:32.662Z,17.6
2023-08-11T11:19:32.662Z,17.6
2023-08-11T11:22:32.658Z,17.6
2023-08-11T11:25:32.652Z,17.6
2023-08-11T11:28:32.662Z,17.6
2023-08-11T11:31:32.666Z,17.6
2023-08-11T11:34:32.684Z,17.6
2023-08-11T11:37:32.678Z,17.6
2023-08-11T11:40:32.722Z,17.6
2023-08-11T11:43:32.694Z,17.6
2023-08-11T11:46:32.704Z,17.6
2023-08-11T11:49:32.934Z,17.6
2023-08-11T11:52:32.718Z,17.6
2023-08-11T11:55:32.713Z,17.6
2023-08-11T11:58:32.718Z,17.6
2023-08-11T12:01:32.739Z,17.6
2023-08-11T12:04:32.832Z,17.6
2023-08-11T12:07:32.738Z,17.6
2023-08-11T12:10:32.737Z,17.6
2023-08-11T12:13:32.746Z,17.6
2023-08-11T12:16:32.767Z,17.7
2023-08-11T12:19:32.753Z,17.7
2023-08-11T12:22:32.787Z,17.7
2023-08-11T12:25:32.765Z,17.7
2023-08-11T12:28:32.786Z,17.7
2023-08-11T12:31:32.771Z,17.7
2023-08-11T12:34:32.779Z,17.8
2023-08-11T12:37:32.778Z,17.7
2023-08-11T12:40:32.785Z,17.8
2023-08-11T12:43:32.788Z,17.8
2023-08-11T12:46:32.821Z,17.8
2023-08-11T12:49:32.885Z,17.8
2023-08-11T12:52:32.809Z,17.8
2023-08-11T12:55:32.815Z,17.8
2023-08-11T12:58:32.822Z,17.8
2023-08-11T13:01:32.844Z,17.8
2023-08-11T13:04:32.830Z,17.8
2023-08-11T13:07:32.837Z,17.8
2023-08-11T13:10:32.848Z,17.9
2023-08-11T13:13:32.851Z,17.9
2023-08-11T13:16:32.877Z,17.9
2023-08-11T13:19:32.949Z,17.9
2023-08-11T13:22:32.865Z,17.9
2023-08-11T13:25:32.862Z,17.9
2023-08-11T13:28:32.873Z,17.9
2023-08-11T13:31:32.886Z,17.9
2023-08-11T13:34:32.875Z,17.9
2023-08-11T13:37:32.880Z,17.9
2023-08-11T13:40:32.882Z,17.9
2023-08-11T13:43:32.885Z,18
2023-08-11T13:46:32.893Z,18
2023-08-11T13:49:32.912Z,18
2023-08-11T13:52:32.899Z,18.1
2023-08-11T13:55:32.899Z,18.1
2023-08-11T13:58:32.921Z,18.1
2023-08-11T14:01:32.940Z,18.1
2023-08-11T14:04:32.941Z,18.1
2023-08-11T14:07:35.160Z,18.1
2023-08-11T14:10:32.933Z,18.1
2023-08-11T14:13:32.935Z,18.1
2023-08-11T14:16:32.940Z,18.1
2023-08-11T14:19:33.029Z,18.1
2023-08-11T14:22:32.949Z,18.2
2023-08-11T14:25:32.960Z,18.2
2023-08-11T14:28:32.962Z,18.2
2023-08-11T14:31:32.957Z,18.2
2023-08-11T14:34:32.966Z,18.2
2023-08-11T14:37:32.976Z,18.2
2023-08-11T14:40:32.983Z,18.3
2023-08-11T14:43:32.989Z,18.3
2023-08-11T14:46:33.015Z,18.3
2023-08-11T14:49:33.040Z,18.3
2023-08-11T14:52:33.001Z,18.3
2023-08-11T14:55:33.019Z,18.3
2023-08-11T14:58:33.009Z,18.3
2023-08-11T15:01:33.135Z,18.3
2023-08-11T15:04:33.028Z,18.3
2023-08-11T15:07:33.047Z,18.3
2023-08-11T15:10:33.034Z,18.3
2023-08-11T15:13:33.036Z,18.3
2023-08-11T15:16:33.096Z,18.3
2023-08-11T15:19:33.057Z,18.3
2023-08-11T15:22:33.060Z,18.3
2023-08-11T15:25:33.049Z,18.3
2023-08-11T15:28:33.062Z,18.3
2023-08-11T15:31:33.071Z,18.3
2023-08-11T15:34:33.091Z,18.3
2023-08-11T15:37:33.086Z,18.3
2023-08-11T15:40:33.088Z,18.3
2023-08-11T15:43:33.121Z,18.3
2023-08-11T15:46:33.095Z,18.3
2023-08-11T15:49:33.112Z,18.3
2023-08-11T15:52:33.103Z,18.3
2023-08-11T15:55:36.558Z,18.2
2023-08-11T15:58:33.104Z,18.2
2023-08-11T16:01:33.128Z,18.2
2023-08-11T16:04:33.162Z,18.2
2023-08-11T16:07:33.132Z,18.2
2023-08-11T16:10:33.238Z,18.2
2023-08-11T16:13:33.143Z,18.2
2023-08-11T16:16:33.158Z,18.2
2023-08-11T16:19:33.167Z,18.1
2023-08-11T16:22:33.158Z,18.1
2023-08-11T16:25:33.153Z,18.1
2023-08-11T16:28:33.162Z,18.1
2023-08-11T16:31:33.176Z,18.1
2023-08-11T16:34:33.208Z,18.1
2023-08-11T16:37:33.182Z,18.1
2023-08-11T16:40:33.189Z,18.1
2023-08-11T16:43:33.185Z,18.1
2023-08-11T16:46:33.228Z,18.1
2023-08-11T16:49:33.225Z,18.1
2023-08-11T16:52:33.218Z,18.1
2023-08-11T16:55:33.218Z,18.1
2023-08-11T16:58:33.218Z,18.1
2023-08-11T17:01:33.247Z,18.1
2023-08-11T17:04:33.275Z,18.1
2023-08-11T17:07:33.242Z,18.1
2023-08-11T17:10:33.233Z,18.1
2023-08-11T17:13:33.245Z,18.1
2023-08-11T17:16:33.326Z,18.1
2023-08-11T17:19:33.263Z,18.1
2023-08-11T17:22:33.250Z,18.1
2023-08-11T17:25:33.255Z,18.1
2023-08-11T17:28:33.252Z,18.1
2023-08-11T17:31:33.284Z,18.1
2023-08-11T17:34:35.837Z,18.1
2023-08-11T17:37:33.267Z,18.1
2023-08-11T17:40:33.275Z,18.1
2023-08-11T17:43:33.284Z,18.1
2023-08-11T17:46:33.445Z,18.1
2023-08-11T17:49:33.312Z,18.1
2023-08-11T17:52:33.310Z,18.1
2023-08-11T17:55:33.301Z,18.1
2023-08-11T17:58:33.301Z,18.1
2023-08-11T18:01:33.408Z,18.2
2023-08-11T18:04:33.340Z,18.2
2023-08-11T18:07:33.328Z,18.2
2023-08-11T18:10:33.346Z,18.2
2023-08-11T18:13:33.345Z,18.2
2023-08-11T18:16:33.380Z,18.2
2023-08-11T18:19:33.378Z,18.3
2023-08-11T18:22:33.352Z,18.3
2023-08-11T18:25:33.396Z,18.3
2023-08-11T18:28:33.374Z,18.3
2023-08-11T18:31:33.370Z,18.3
2023-08-11T18:34:33.402Z,18.3
2023-08-11T18:37:33.374Z,18.3
2023-08-11T18:40:33.373Z,18.3
2023-08-11T18:43:33.383Z,18.3
2023-08-11T18:46:33.419Z,18.3
2023-08-11T18:49:33.418Z,18.3
2023-08-11T18:52:33.396Z,18.3
2023-08-11T18:55:33.417Z,18.4
2023-08-11T18:58:33.413Z,18.4
2023-08-11T19:01:33.464Z,18.4
2023-08-11T19:04:33.431Z,18.4
2023-08-11T19:07:33.454Z,18.4
2023-08-11T19:10:33.434Z,18.4
2023-08-11T19:13:33.511Z,18.4
2023-08-11T19:16:33.553Z,18.4
2023-08-11T19:19:33.561Z,18.4
2023-08-11T19:22:33.523Z,18.4
2023-08-11T19:25:33.542Z,18.4
2023-08-11T19:28:33.522Z,18.4
2023-08-11T19:31:33.536Z,18.4
2023-08-11T19:34:33.532Z,18.4
2023-08-11T19:37:33.527Z,18.4
2023-08-11T19:40:33.544Z,18.4
2023-08-11T19:43:33.537Z,18.4
2023-08-11T19:46:33.537Z,18.4
2023-08-11T19:49:33.530Z,18.5
2023-08-11T19:52:33.543Z,18.5
2023-08-11T19:55:34.155Z,18.5
2023-08-11T19:58:33.542Z,18.5
2023-08-11T20:01:33.550Z,18.5
2023-08-11T20:04:33.537Z,18.5
2023-08-11T20:07:33.529Z,18.5
2023-08-11T20:10:34.570Z,18.5
2023-08-11T20:13:33.535Z,18.5
2023-08-11T20:16:33.604Z,18.5
2023-08-11T20:19:33.551Z,18.5
2023-08-11T20:22:33.543Z,18.5
2023-08-11T20:25:33.558Z,18.5
2023-08-11T20:28:33.544Z,18.5
2023-08-11T20:31:33.578Z,18.6
2023-08-11T20:34:33.546Z,18.6
2023-08-11T20:37:33.623Z,18.5
2023-08-11T20:40:33.792Z,18.6
2023-08-11T20:43:33.549Z,18.6
2023-08-11T20:46:33.546Z,18.6
2023-08-11T20:49:33.562Z,18.6
2023-08-11T20:52:33.564Z,18.6
2023-08-11T20:55:33.577Z,18.6
2023-08-11T20:58:33.560Z,18.6
2023-08-11T21:01:33.588Z,18.6
2023-08-11T21:04:33.567Z,18.6
2023-08-11T21:07:33.566Z,18.6
2023-08-11T21:10:33.588Z,18.6
2023-08-11T21:13:33.569Z,18.6
2023-08-11T21:16:33.587Z,18.6
2023-08-11T21:19:33.578Z,18.6
2023-08-11T21:22:33.579Z,18.6
2023-08-11T21:25:33.601Z,18.6
2023-08-11T21:28:33.585Z,18.6
2023-08-11T21:31:33.657Z,18.6
2023-08-11T21:34:33.584Z,18.6
2023-08-11T21:37:33.605Z,18.6
2023-08-11T21:40:33.613Z,18.6
2023-08-11T21:43:33.598Z,18.6
2023-08-11T21:46:33.654Z,18.6
2023-08-11T21:49:33.608Z,18.6
2023-08-11T21:52:33.612Z,18.6
2023-08-11T21:55:33.630Z,18.6
2023-08-11T21:58:33.634Z,18.6
2023-08-11T22:01:33.631Z,18.6
2023-08-11T22:04:33.636Z,18.6
2023-08-11T22:07:33.625Z,18.6
2023-08-11T22:10:33.651Z,18.6
2023-08-11T22:13:33.663Z,18.6
2023-08-11T22:16:33.757Z,18.6
2023-08-11T22:19:33.660Z,18.6
2023-08-11T22:22:33.656Z,18.6
2023-08-11T22:25:33.677Z,18.6
2023-08-11T22:28:33.661Z,18.6
2023-08-11T22:31:33.698Z,18.6
2023-08-11T22:34:33.675Z,18.6
2023-08-11T22:37:33.673Z,18.6
2023-08-11T22:40:33.697Z,18.6
2023-08-11T22:43:33.683Z,18.6
2023-08-11T22:46:33.733Z,18.6
2023-08-11T22:49:33.697Z,18.6
2023-08-11T22:52:33.684Z,18.6
2023-08-11T22:55:33.723Z,18.6
2023-08-11T22:58:33.706Z,18.6
2023-08-11T23:01:33.718Z,18.6
2023-08-11T23:04:33.724Z,18.6
2023-08-11T23:07:33.705Z,18.6
2023-08-11T23:10:33.728Z,18.6
2023-08-11T23:13:33.722Z,18.6
2023-08-11T23:16:33.763Z,18.6
2023-08-11T23:19:33.725Z,18.6
2023-08-11T23:22:33.717Z,18.6
2023-08-11T23:25:33.750Z,18.6
2023-08-11T23:28:33.736Z,18.6
2023-08-11T23:31:33.749Z,18.6
2023-08-11T23:34:33.753Z,18.6
2023-08-11T23:37:33.749Z,18.6
2023-08-11T23:40:33.793Z,18.6
2023-08-11T23:43:33.759Z,18.6
2023-08-11T23:46:33.763Z,18.6
2023-08-11T23:49:33.780Z,18.6
2023-08-11T23:52:33.778Z,18.6
2023-08-11T23:55:33.806Z,18.6
2023-08-11T23:58:33.787Z,18.6
